Milagres, Brazil
Current Conditions -  °F | °C
As of 2:00 PM on Monday 20 Oct 2014 (Local Time) from SBJU Reporting Station
Broken Clouds Broken Clouds  
Wind Chill: 100°   Ceiling: 2200
Heat Index: 102°   Visibility: 6mi
Dew Point: 63°   Wind: 5mph
Humidity: 29%   Direction: 100°E
Pressure: 29.85"   Gusts: NA
Location:  7.31°S, 38.95°W
Report Text: SBJU 201700Z 10004KT 9999 BKN022 38/17 Q1011
Loading
Personal Weather Stations






























Interactive Weather Map
Tropical Storm Tracking
New forecast layout! Learn more

10-Day Weather Forecast

Advertisements
Track Severe Weather on mobile